createdAt,value
2018-02-24T00:00:49.143Z,102500.20
2018-02-24T00:03:16.663Z,102497.58
2018-02-24T00:05:44.201Z,102500.63
2018-02-24T00:08:11.734Z,102497.84
2018-02-24T00:10:39.279Z,102499.67
2018-02-24T00:13:06.791Z,102501.17
2018-02-24T00:15:34.316Z,102505.81
2018-02-24T00:18:01.836Z,102499.19
2018-02-24T00:20:29.371Z,102504.67
2018-02-24T00:22:56.956Z,102504.67
2018-02-24T00:25:24.504Z,102501.58
2018-02-24T00:27:52.038Z,102497.38
2018-02-24T00:30:19.570Z,102495.60
2018-02-24T00:32:47.086Z,102497.98
2018-02-24T00:35:14.649Z,102500.27
2018-02-24T00:37:42.186Z,102500.16
2018-02-24T00:40:09.712Z,102496.78
2018-02-24T00:42:37.339Z,102495.25
2018-02-24T00:45:04.853Z,102501.31
2018-02-24T00:47:32.382Z,102498.84
2018-02-24T00:49:59.909Z,102492.19
2018-02-24T00:52:27.448Z,102493.83
2018-02-24T00:54:55.021Z,102490.29
2018-02-24T00:57:22.548Z,102485.98
2018-02-24T00:59:50.076Z,102479.94
2018-02-24T01:02:17.589Z,102473.22
2018-02-24T01:04:45.110Z,102478.46
2018-02-24T01:07:12.731Z,102478.52
2018-02-24T01:09:40.290Z,102472.45
2018-02-24T01:12:07.851Z,102471.34
2018-02-24T01:14:35.410Z,102470.37
2018-02-24T01:17:02.941Z,102463.81
2018-02-24T01:19:30.470Z,102463.73
2018-02-24T01:21:57.981Z,102465.36
2018-02-24T01:24:25.520Z,102464.00
2018-02-24T01:26:53.046Z,102466.45
2018-02-24T01:29:20.657Z,102467.81
2018-02-24T01:31:48.172Z,102470.30
2018-02-24T01:34:15.691Z,102466.48
2018-02-24T01:36:43.209Z,102465.88
2018-02-24T01:39:10.800Z,102463.62
2018-02-24T01:41:38.314Z,102469.64
2018-02-24T01:44:05.833Z,102475.61
2018-02-24T01:46:33.378Z,102474.04
2018-02-24T01:49:00.906Z,102479.89
2018-02-24T01:51:28.428Z,102472.66
2018-02-24T01:53:55.948Z,102471.86
2018-02-24T01:56:23.468Z,102472.12
2018-02-24T01:58:50.984Z,102467.22
2018-02-24T02:01:18.509Z,102464.59
2018-02-24T02:03:46.028Z,102460.89
2018-02-24T02:06:13.565Z,102462.09
2018-02-24T02:08:41.080Z,102466.84
2018-02-24T02:11:08.657Z,102472.01
2018-02-24T02:13:36.178Z,102466.53
2018-02-24T02:16:03.804Z,102467.84
2018-02-24T02:18:31.321Z,102462.48
2018-02-24T02:20:58.881Z,102456.66
2018-02-24T02:23:26.482Z,102453.86
2018-02-24T02:25:54.010Z,102464.51
2018-02-24T02:28:21.536Z,102454.73
2018-02-24T02:30:49.054Z,102456.16
2018-02-24T02:33:16.599Z,102460.60
2018-02-24T02:35:44.126Z,102464.05
2018-02-24T02:38:11.648Z,102470.96
2018-02-24T02:40:39.177Z,102466.12
2018-02-24T02:43:06.704Z,102467.77
2018-02-24T02:45:34.227Z,102482.70
2018-02-24T02:48:01.760Z,102474.13
2018-02-24T02:50:29.273Z,102474.68
2018-02-24T02:52:56.790Z,102481.56
2018-02-24T02:55:24.365Z,102486.11
2018-02-24T02:57:51.984Z,102482.42
2018-02-24T03:00:19.580Z,102487.36
2018-02-24T03:02:47.119Z,102482.30
2018-02-24T03:05:14.640Z,102487.81
2018-02-24T03:07:42.155Z,102483.84
2018-02-24T03:10:09.673Z,102475.89
2018-02-24T03:12:37.197Z,102480.00
2018-02-24T03:15:04.727Z,102486.80
2018-02-24T03:17:32.247Z,102489.89
2018-02-24T03:19:59.774Z,102483.03
2018-02-24T03:22:27.300Z,102484.02
2018-02-24T03:24:54.825Z,102473.48
2018-02-24T03:27:22.359Z,102490.05
2018-02-24T03:29:49.896Z,102480.72
2018-02-24T03:32:17.546Z,102475.94
2018-02-24T03:34:45.078Z,102484.27
2018-02-24T03:37:12.598Z,102476.50
2018-02-24T03:39:40.124Z,102477.67
2018-02-24T03:42:07.653Z,102474.64
2018-02-24T03:44:35.180Z,102479.28
2018-02-24T03:47:02.707Z,102476.38
2018-02-24T03:49:30.237Z,102477.30
2018-02-24T03:51:57.822Z,102481.83
2018-02-24T03:54:25.386Z,102482.25
2018-02-24T03:56:52.906Z,102489.94
2018-02-24T03:59:20.433Z,102491.69
2018-02-24T04:01:47.954Z,102492.12
2018-02-24T04:04:15.622Z,102488.63
2018-02-24T04:06:43.141Z,102492.05
2018-02-24T04:09:10.673Z,102493.93
2018-02-24T04:11:38.192Z,102498.27
2018-02-24T04:14:05.712Z,102504.28
2018-02-24T04:16:33.313Z,102504.17
2018-02-24T04:19:00.842Z,102506.48
2018-02-24T04:21:28.404Z,102505.89
2018-02-24T04:23:55.938Z,102498.47
2018-02-24T04:26:23.552Z,102504.30
2018-02-24T04:28:51.073Z,102506.61
2018-02-24T04:31:18.605Z,102511.11
2018-02-24T04:33:46.131Z,102512.96
2018-02-24T04:36:13.673Z,102514.19
2018-02-24T04:38:41.194Z,102513.06
2018-02-24T04:41:08.823Z,102515.22
2018-02-24T04:43:36.373Z,102516.98
2018-02-24T04:46:03.892Z,102511.79
2018-02-24T04:48:31.427Z,102501.49
2018-02-24T04:50:58.944Z,102514.14
2018-02-24T04:53:26.462Z,102510.78
2018-02-24T04:55:53.978Z,102517.48
2018-02-24T04:58:21.501Z,102525.36
2018-02-24T05:00:49.084Z,102535.53
2018-02-24T05:03:16.601Z,102535.09
2018-02-24T05:05:44.219Z,102535.95
2018-02-24T05:08:11.766Z,102529.45
2018-02-24T05:10:39.289Z,102546.27
2018-02-24T05:13:06.823Z,102542.72
2018-02-24T05:15:34.344Z,102541.24
2018-02-24T05:18:01.870Z,102546.95
2018-02-24T05:20:29.389Z,102550.06
2018-02-24T05:22:56.909Z,102543.79
2018-02-24T05:25:24.430Z,102553.42
2018-02-24T05:27:51.948Z,102549.98
2018-02-24T05:30:19.470Z,102557.37
2018-02-24T05:32:47.065Z,102553.13
2018-02-24T05:35:14.629Z,102551.59
2018-02-24T05:37:42.150Z,102551.08
2018-02-24T05:40:09.682Z,102549.36
2018-02-24T05:42:37.206Z,102548.56
2018-02-24T05:45:04.860Z,102551.20
2018-02-24T05:47:32.421Z,102549.02
2018-02-24T05:49:59.950Z,102547.80
2018-02-24T05:52:27.469Z,102547.08
2018-02-24T05:54:55.100Z,102546.22
2018-02-24T05:57:22.660Z,102556.41
2018-02-24T05:59:50.196Z,102557.77
2018-02-24T06:02:17.794Z,102563.07
2018-02-24T06:04:45.335Z,102562.88
2018-02-24T06:07:12.913Z,102567.31
2018-02-24T06:09:40.460Z,102566.28
2018-02-24T06:12:07.977Z,102568.26
2018-02-24T06:14:35.508Z,102570.28
2018-02-24T06:17:03.029Z,102567.91
2018-02-24T06:19:30.540Z,102569.34
2018-02-24T06:21:58.093Z,102577.62
2018-02-24T06:24:25.613Z,102565.02
2018-02-24T06:26:53.155Z,102575.47
2018-02-24T06:29:20.950Z,102578.34
2018-02-24T06:31:48.476Z,102583.37
2018-02-24T06:34:15.998Z,102576.86
2018-02-24T06:36:43.519Z,102582.21
2018-02-24T06:39:11.060Z,102590.62
2018-02-24T06:41:38.653Z,102599.45
2018-02-24T06:44:06.171Z,102601.45
2018-02-24T06:46:33.698Z,102611.02
2018-02-24T06:49:01.216Z,102604.94
2018-02-24T06:51:28.729Z,102616.41
2018-02-24T06:53:56.346Z,102625.73
2018-02-24T06:56:23.862Z,102620.82
2018-02-24T06:58:51.425Z,102631.72
2018-02-24T07:01:18.959Z,102642.43
2018-02-24T07:03:46.484Z,102628.92
2018-02-24T07:06:14.027Z,102632.56
2018-02-24T07:08:41.547Z,102639.20
2018-02-24T07:11:09.055Z,102647.34
2018-02-24T07:13:36.577Z,102637.99
2018-02-24T07:16:04.123Z,102647.37
2018-02-24T07:18:31.646Z,102651.92
2018-02-24T07:20:59.155Z,102654.84
2018-02-24T07:23:26.672Z,102661.19
2018-02-24T07:25:54.216Z,102655.69
2018-02-24T07:28:21.730Z,102662.13
2018-02-24T07:30:49.252Z,102661.33
2018-02-24T07:33:16.775Z,102662.48
2018-02-24T07:35:44.326Z,102670.44
2018-02-24T07:38:11.836Z,102659.23
2018-02-24T07:40:39.348Z,102662.34
2018-02-24T07:43:06.860Z,102662.28
2018-02-24T07:45:34.484Z,102652.58
2018-02-24T07:48:02.000Z,102660.08
2018-02-24T07:50:29.514Z,102637.44
2018-02-24T07:52:57.104Z,102641.50
2018-02-24T07:55:24.601Z,102636.81
2018-02-24T07:57:52.136Z,102644.49
2018-02-24T08:00:19.744Z,102643.91
2018-02-24T08:02:47.253Z,102656.28
2018-02-24T08:05:14.765Z,102647.45
2018-02-24T08:07:42.321Z,102645.82
2018-02-24T08:10:09.828Z,102638.08
2018-02-24T08:12:37.341Z,102643.98
2018-02-24T08:15:04.851Z,102644.70
2018-02-24T08:17:32.371Z,102645.23
2018-02-24T08:19:59.893Z,102650.33
2018-02-24T08:22:27.410Z,102647.29
2018-02-24T08:24:54.930Z,102648.27
2018-02-24T08:27:22.441Z,102656.39
2018-02-24T08:29:50.063Z,102660.14
2018-02-24T08:32:17.625Z,102662.75
2018-02-24T08:34:45.147Z,102674.66
2018-02-24T08:37:12.644Z,102672.02
2018-02-24T08:39:40.175Z,102667.03
2018-02-24T08:42:07.687Z,102674.67
2018-02-24T08:44:35.202Z,102655.27
2018-02-24T08:47:05.666Z,102672.87
2018-02-24T08:49:33.217Z,102679.55
2018-02-24T08:52:00.738Z,102663.92
2018-02-24T08:54:28.347Z,102660.45
2018-02-24T08:56:55.870Z,102666.09
2018-02-24T08:59:23.379Z,102654.70
2018-02-24T09:01:50.974Z,102666.22
2018-02-24T09:04:18.521Z,102682.03
2018-02-24T09:06:46.052Z,102674.89
2018-02-24T09:09:13.573Z,102668.31
2018-02-24T09:11:41.091Z,102651.65
2018-02-24T09:14:08.642Z,102676.69
2018-02-24T09:16:36.216Z,102645.12
2018-02-24T09:19:03.779Z,102655.05
2018-02-24T09:21:31.316Z,102665.09
2018-02-24T09:23:58.840Z,102655.20
2018-02-24T09:26:28.152Z,102651.18
2018-02-24T09:28:55.682Z,102663.16
2018-02-24T09:31:23.209Z,102651.11
2018-02-24T09:33:50.707Z,102659.12
2018-02-24T09:36:18.218Z,102661.75
2018-02-24T09:38:45.732Z,102670.18
2018-02-24T09:41:13.267Z,102664.27
2018-02-24T09:43:40.787Z,102663.82
2018-02-24T09:46:08.564Z,102666.57
2018-02-24T09:48:36.087Z,102657.27
2018-02-24T09:51:03.616Z,102677.03
2018-02-24T09:53:31.159Z,102667.95
2018-02-24T09:55:58.674Z,102663.69
2018-02-24T09:58:26.246Z,102659.25
2018-02-24T10:00:53.833Z,102659.36
2018-02-24T10:03:21.415Z,102656.67
2018-02-24T10:05:48.979Z,102680.02
2018-02-24T10:08:16.534Z,102672.04
2018-02-24T10:10:44.050Z,102678.84
2018-02-24T10:13:11.561Z,102691.95
2018-02-24T10:15:39.064Z,102675.89
2018-02-24T10:18:06.576Z,102682.91
2018-02-24T10:20:34.087Z,102684.17
2018-02-24T10:23:01.624Z,102678.30
2018-02-24T10:25:29.157Z,102674.13
2018-02-24T10:27:56.677Z,102676.05
2018-02-24T10:30:24.182Z,102675.79
2018-02-24T10:32:53.842Z,102680.54
2018-02-24T10:35:21.422Z,102695.77
2018-02-24T10:37:48.933Z,102697.77
2018-02-24T10:40:16.467Z,102695.05
2018-02-24T10:42:43.973Z,102673.65
2018-02-24T10:45:11.488Z,102692.62
2018-02-24T10:47:39.014Z,102684.16
2018-02-24T10:50:06.546Z,102688.89
2018-02-24T10:52:34.072Z,102685.20
2018-02-24T10:55:01.594Z,102686.52
2018-02-24T10:57:29.167Z,102676.61
2018-02-24T10:59:56.651Z,102675.68
2018-02-24T11:02:24.166Z,102677.97
2018-02-24T11:04:51.685Z,102669.40
2018-02-24T11:07:19.200Z,102687.61
2018-02-24T11:09:46.718Z,102678.67
2018-02-24T11:12:14.229Z,102686.41
2018-02-24T11:14:41.746Z,102679.36
2018-02-24T11:17:09.276Z,102673.51
2018-02-24T11:19:36.793Z,102666.75
2018-02-24T11:22:04.309Z,102663.44
2018-02-24T11:24:31.830Z,102665.77
2018-02-24T11:26:59.340Z,102661.76
2018-02-24T11:29:26.850Z,102671.20
2018-02-24T11:31:54.362Z,102662.12
2018-02-24T11:34:21.866Z,102662.10
2018-02-24T11:36:49.392Z,102654.63
2018-02-24T11:39:16.921Z,102651.84
2018-02-24T11:41:44.462Z,102648.98
2018-02-24T11:44:11.981Z,102656.99
2018-02-24T11:46:39.501Z,102652.67
2018-02-24T11:49:07.007Z,102657.67
2018-02-24T11:51:34.526Z,102659.58
2018-02-24T11:54:02.054Z,102661.47
2018-02-24T11:56:29.573Z,102659.57
2018-02-24T11:58:57.077Z,102653.09
2018-02-24T12:01:24.589Z,102655.16
2018-02-24T12:03:52.102Z,102656.24
2018-02-24T12:06:19.614Z,102651.43
2018-02-24T12:08:47.129Z,102653.39
2018-02-24T12:11:14.641Z,102648.01
2018-02-24T12:13:42.156Z,102669.85
2018-02-24T12:16:09.697Z,102652.81
2018-02-24T12:18:37.235Z,102646.27
2018-02-24T12:21:04.744Z,102657.03
2018-02-24T12:23:32.273Z,102652.33
2018-02-24T12:25:59.789Z,102648.47
2018-02-24T12:28:27.305Z,102649.52
2018-02-24T12:30:54.834Z,102647.67
2018-02-24T12:33:22.360Z,102629.58
2018-02-24T12:35:49.885Z,102660.56
2018-02-24T12:38:18.117Z,102656.13
2018-02-24T12:40:45.622Z,102665.98
2018-02-24T12:43:13.142Z,102673.39
2018-02-24T12:45:40.645Z,102671.87
2018-02-24T12:48:08.158Z,102656.75
2018-02-24T12:50:35.680Z,102658.47
2018-02-24T12:53:03.194Z,102654.63
2018-02-24T12:55:30.705Z,102655.67
2018-02-24T12:57:58.221Z,102656.80
2018-02-24T13:00:25.726Z,102647.05
2018-02-24T13:02:53.252Z,102657.34
2018-02-24T13:05:20.767Z,102651.74
2018-02-24T13:07:48.278Z,102661.23
2018-02-24T13:10:15.805Z,102660.16
2018-02-24T13:12:43.315Z,102666.59
2018-02-24T13:15:10.821Z,102666.28
2018-02-24T13:17:38.345Z,102660.75
2018-02-24T13:20:05.860Z,102663.33
2018-02-24T13:22:33.377Z,102669.24
2018-02-24T13:25:00.893Z,102667.39
2018-02-24T13:27:28.410Z,102675.97
2018-02-24T13:29:55.921Z,102668.71
2018-02-24T13:32:23.470Z,102682.19
2018-02-24T13:34:50.957Z,102671.22
2018-02-24T13:37:18.481Z,102662.80
2018-02-24T13:39:45.994Z,102686.33
2018-02-24T13:42:13.500Z,102689.86
2018-02-24T13:44:41.023Z,102703.27
2018-02-24T13:47:08.538Z,102689.92
2018-02-24T13:49:36.056Z,102674.28
2018-02-24T13:52:03.568Z,102685.45
2018-02-24T13:54:31.074Z,102685.44
2018-02-24T13:56:58.594Z,102707.45
2018-02-24T13:59:26.093Z,102701.84
2018-02-24T14:01:53.594Z,102705.10
2018-02-24T14:04:21.114Z,102698.35
2018-02-24T14:06:48.621Z,102701.53
2018-02-24T14:09:16.127Z,102697.55
2018-02-24T14:11:43.642Z,102687.46
2018-02-24T14:14:11.156Z,102692.55
2018-02-24T14:16:38.663Z,102696.15
2018-02-24T14:19:06.170Z,102686.91
2018-02-24T14:21:33.673Z,102699.20
2018-02-24T14:24:01.209Z,102710.41
2018-02-24T14:26:28.718Z,102702.56
2018-02-24T14:28:56.226Z,102693.66
2018-02-24T14:31:23.738Z,102712.16
2018-02-24T14:33:51.253Z,102710.15
2018-02-24T14:36:18.779Z,102698.67
2018-02-24T14:38:46.294Z,102707.70
2018-02-24T14:41:13.808Z,102714.36
2018-02-24T14:43:41.328Z,102713.78
2018-02-24T14:46:08.828Z,102704.45
2018-02-24T14:48:36.331Z,102708.91
2018-02-24T14:51:03.852Z,102709.84
2018-02-24T14:53:31.361Z,102715.28
2018-02-24T14:55:58.869Z,102702.05
2018-02-24T14:58:26.369Z,102702.71
2018-02-24T15:00:53.883Z,102696.05
2018-02-24T15:03:21.398Z,102695.20
2018-02-24T15:05:48.906Z,102709.94
2018-02-24T15:08:16.461Z,102704.86
2018-02-24T15:10:43.951Z,102696.70
2018-02-24T15:13:11.476Z,102710.88
2018-02-24T15:15:39.005Z,102716.39
2018-02-24T15:18:06.534Z,102710.66
2018-02-24T15:20:34.058Z,102708.94
2018-02-24T15:23:01.572Z,102706.11
2018-02-24T15:25:29.082Z,102709.32
2018-02-24T15:27:56.619Z,102706.57
2018-02-24T15:30:24.129Z,102717.80
2018-02-24T15:32:51.645Z,102714.02
2018-02-24T15:35:19.158Z,102710.17
2018-02-24T15:37:46.672Z,102713.67
2018-02-24T15:40:14.187Z,102720.13
2018-02-24T15:42:41.707Z,102727.67
2018-02-24T15:45:09.256Z,102733.70
2018-02-24T15:47:36.783Z,102727.50
2018-02-24T15:50:04.333Z,102735.66
2018-02-24T15:52:31.899Z,102718.49
2018-02-24T15:54:59.479Z,102729.65
2018-02-24T15:57:26.995Z,102737.30
2018-02-24T15:59:54.509Z,102731.44
2018-02-24T16:02:22.097Z,102755.95
2018-02-24T16:04:49.596Z,102745.50
2018-02-24T16:07:17.116Z,102752.72
2018-02-24T16:09:44.643Z,102745.53
2018-02-24T16:12:12.145Z,102749.34
2018-02-24T16:14:39.663Z,102746.23
2018-02-24T16:17:07.177Z,102751.97
2018-02-24T16:19:34.704Z,102756.04
2018-02-24T16:22:02.254Z,102756.98
2018-02-24T16:24:30.005Z,102754.84
2018-02-24T16:26:57.546Z,102760.44
2018-02-24T16:29:25.094Z,102770.14
2018-02-24T16:31:52.610Z,102764.45
2018-02-24T16:34:20.122Z,102760.02
2018-02-24T16:36:47.673Z,102767.51
2018-02-24T16:39:15.187Z,102772.75
2018-02-24T16:41:42.713Z,102779.99
2018-02-24T16:44:10.231Z,102789.99
2018-02-24T16:46:37.769Z,102787.91
2018-02-24T16:49:05.292Z,102783.73
2018-02-24T16:51:33.144Z,102788.66
2018-02-24T16:54:00.711Z,102791.51
2018-02-24T16:56:28.233Z,102787.89
2018-02-24T16:58:55.742Z,102793.20
2018-02-24T17:01:23.262Z,102799.31
2018-02-24T17:03:50.782Z,102803.86
2018-02-24T17:06:18.295Z,102804.39
2018-02-24T17:08:45.820Z,102802.98
2018-02-24T17:11:13.374Z,102802.46
2018-02-24T17:13:40.893Z,102811.20
2018-02-24T17:16:08.409Z,102804.36
2018-02-24T17:18:35.955Z,102814.16
2018-02-24T17:21:03.517Z,102818.31
2018-02-24T17:23:31.023Z,102823.18
2018-02-24T17:25:58.542Z,102812.86
2018-02-24T17:28:26.067Z,102820.13
2018-02-24T17:30:53.580Z,102828.65
2018-02-24T17:33:21.110Z,102829.57
2018-02-24T17:35:48.631Z,102828.20
2018-02-24T17:38:16.151Z,102829.81
2018-02-24T17:40:43.688Z,102835.47
2018-02-24T17:43:11.219Z,102846.83
2018-02-24T17:45:38.741Z,102844.42
2018-02-24T17:48:06.268Z,102843.95
2018-02-24T17:50:33.788Z,102840.77
2018-02-24T17:53:01.321Z,102841.89
2018-02-24T17:55:28.846Z,102833.61
2018-02-24T17:57:56.352Z,102838.08
2018-02-24T18:00:24.053Z,102841.92
2018-02-24T18:02:51.694Z,102843.63
2018-02-24T18:05:19.219Z,102847.16
2018-02-24T18:07:47.539Z,102846.53
2018-02-24T18:10:15.069Z,102841.95
2018-02-24T18:12:42.614Z,102843.55
2018-02-24T18:15:10.135Z,102844.41
2018-02-24T18:17:37.666Z,102837.59
2018-02-24T18:20:05.188Z,102835.81
2018-02-24T18:22:32.717Z,102837.70
2018-02-24T18:25:00.245Z,102839.27
2018-02-24T18:27:27.774Z,102841.33
2018-02-24T18:29:55.292Z,102831.27
2018-02-24T18:32:22.825Z,102835.12
2018-02-24T18:34:50.352Z,102839.72
2018-02-24T18:37:17.879Z,102842.64
2018-02-24T18:39:45.392Z,102848.62
2018-02-24T18:42:12.911Z,102847.73
2018-02-24T18:44:40.432Z,102857.58
2018-02-24T18:47:07.973Z,102854.66
2018-02-24T18:49:35.493Z,102863.81
2018-02-24T18:52:03.024Z,102871.28
2018-02-24T18:54:30.554Z,102874.75
2018-02-24T18:56:58.078Z,102869.41
2018-02-24T18:59:25.605Z,102872.45
2018-02-24T19:01:53.126Z,102873.27
2018-02-24T19:04:20.658Z,102878.88
2018-02-24T19:06:48.180Z,102881.09
2018-02-24T19:09:15.709Z,102882.20
2018-02-24T19:11:43.221Z,102883.30
2018-02-24T19:14:10.922Z,102890.73
2018-02-24T19:16:38.448Z,102882.48
2018-02-24T19:19:05.961Z,102887.33
2018-02-24T19:21:33.472Z,102884.72
2018-02-24T19:24:01.021Z,102896.22
2018-02-24T19:26:28.799Z,102898.28
2018-02-24T19:28:56.356Z,102897.91
2018-02-24T19:31:23.883Z,102901.80
2018-02-24T19:33:51.650Z,102901.06
2018-02-24T19:36:19.172Z,102895.03
2018-02-24T19:38:46.738Z,102902.89
2018-02-24T19:41:14.370Z,102905.57
2018-02-24T19:43:41.894Z,102902.69
2018-02-24T19:46:09.454Z,102900.73
2018-02-24T19:48:36.969Z,102901.76
2018-02-24T19:51:04.491Z,102896.81
2018-02-24T19:53:32.054Z,102907.63
2018-02-24T19:55:59.604Z,102912.29
2018-02-24T19:58:27.124Z,102908.61
2018-02-24T20:00:54.657Z,102912.45
2018-02-24T20:03:22.173Z,102905.54
2018-02-24T20:05:49.733Z,102906.41
2018-02-24T20:08:17.290Z,102905.93
2018-02-24T20:10:44.994Z,102909.30
2018-02-24T20:13:12.521Z,102908.47
2018-02-24T20:15:40.057Z,102904.35
2018-02-24T20:18:07.586Z,102912.69
2018-02-24T20:20:35.107Z,102910.27
2018-02-24T20:23:02.812Z,102913.81
2018-02-24T20:25:31.085Z,102919.16
2018-02-24T20:27:58.609Z,102914.31
2018-02-24T20:30:26.121Z,102921.06
2018-02-24T20:32:53.670Z,102923.98
2018-02-24T20:35:21.183Z,102919.98
2018-02-24T20:37:48.694Z,102924.58
2018-02-24T20:40:16.205Z,102914.97
2018-02-24T20:42:43.713Z,102924.13
2018-02-24T20:45:11.241Z,102926.09
2018-02-24T20:47:38.765Z,102920.16
2018-02-24T20:50:06.282Z,102919.43
2018-02-24T20:52:34.137Z,102933.23
2018-02-24T20:55:01.845Z,102931.08
2018-02-24T20:57:30.438Z,102925.73
2018-02-24T20:59:58.113Z,102929.22
2018-02-24T21:02:25.665Z,102932.01
2018-02-24T21:04:53.182Z,102928.72
2018-02-24T21:07:20.807Z,102940.78
2018-02-24T21:09:48.317Z,102947.69
2018-02-24T21:12:15.835Z,102947.09
2018-02-24T21:14:43.364Z,102942.89
2018-02-24T21:17:11.078Z,102950.38
2018-02-24T21:19:38.658Z,102950.41
2018-02-24T21:22:06.186Z,102947.92
2018-02-24T21:24:57.314Z,102956.78
2018-02-24T21:27:24.859Z,102956.93
2018-02-24T21:29:52.414Z,102952.84
2018-02-24T21:32:25.627Z,102956.07
2018-02-24T21:34:53.906Z,102961.98
2018-02-24T21:37:22.343Z,102955.67
2018-02-24T21:39:50.010Z,102955.20
2018-02-24T21:42:17.632Z,102953.86
2018-02-24T21:44:45.275Z,102959.50
2018-02-24T21:47:12.902Z,102971.16
2018-02-24T21:49:40.431Z,102967.89
2018-02-24T21:52:07.944Z,102964.98
2018-02-24T21:54:35.461Z,102973.73
2018-02-24T21:57:03.004Z,102973.72
2018-02-24T21:59:30.529Z,102974.95
2018-02-24T22:01:58.057Z,102975.73
2018-02-24T22:04:25.586Z,102976.38
2018-02-24T22:06:53.141Z,102979.97
2018-02-24T22:09:20.756Z,102979.64
2018-02-24T22:11:48.269Z,102987.30
2018-02-24T22:14:15.809Z,102988.43
2018-02-24T22:16:43.356Z,102986.80
2018-02-24T22:19:10.878Z,102997.62
2018-02-24T22:21:38.406Z,102999.70
2018-02-24T22:24:05.920Z,103001.02
2018-02-24T22:26:33.448Z,103002.66
2018-02-24T22:29:00.965Z,103005.43
2018-02-24T22:31:28.513Z,103005.41
2018-02-24T22:33:56.029Z,103002.19
2018-02-24T22:36:23.761Z,103006.15
2018-02-24T22:38:51.282Z,103002.84
2018-02-24T22:41:18.796Z,103008.34
2018-02-24T22:43:46.322Z,103007.55
2018-02-24T22:46:13.845Z,103009.55
2018-02-24T22:48:46.987Z,103007.54
2018-02-24T22:51:14.527Z,103010.66
2018-02-24T22:53:42.069Z,103009.20
2018-02-24T22:56:09.586Z,103018.43
2018-02-24T22:58:37.106Z,103020.09
2018-02-24T23:01:04.655Z,103012.27
2018-02-24T23:03:32.178Z,103022.05
2018-02-24T23:05:59.706Z,103020.36
2018-02-24T23:08:27.236Z,103011.84
2018-02-24T23:10:54.756Z,103023.08
2018-02-24T23:13:22.273Z,103029.50
2018-02-24T23:15:49.812Z,103025.91
2018-02-24T23:18:17.437Z,103025.56
2018-02-24T23:20:45.041Z,103026.14
2018-02-24T23:23:12.553Z,103026.11
2018-02-24T23:25:40.078Z,103023.94
2018-02-24T23:28:07.621Z,103021.88
2018-02-24T23:30:35.138Z,103025.91
2018-02-24T23:33:02.674Z,103011.81
2018-02-24T23:35:30.189Z,103006.15
2018-02-24T23:37:57.713Z,103010.22
2018-02-24T23:40:25.238Z,103014.99
2018-02-24T23:42:52.766Z,103014.33
2018-02-24T23:45:20.326Z,103011.45
2018-02-24T23:47:47.837Z,103013.83
2018-02-24T23:50:15.422Z,103010.66
2018-02-24T23:52:42.942Z,103015.84
2018-02-24T23:55:10.462Z,103013.01
2018-02-24T23:57:37.983Z,103016.04
